createdAt,value
2023-03-23T16:03:20.343Z,15.14
2023-03-23T16:13:20.451Z,15.07
2023-03-23T16:23:20.658Z,15.08
2023-03-23T16:33:22.198Z,15.10
2023-03-23T16:43:22.326Z,15.13
2023-03-23T16:53:24.145Z,15.17
2023-03-23T17:03:24.417Z,15.15
2023-03-23T17:13:27.232Z,15.08
2023-03-23T17:23:27.360Z,15.01
2023-03-23T17:33:27.387Z,14.96
2023-03-23T17:43:27.491Z,14.87
2023-03-23T17:53:27.507Z,14.67
2023-03-23T18:03:27.439Z,14.35
2023-03-23T18:13:27.488Z,14.05
2023-03-23T18:23:27.533Z,13.84
2023-03-23T18:33:27.529Z,13.70
2023-03-23T18:43:27.471Z,13.57
2023-03-23T18:53:27.491Z,13.44
2023-03-23T19:03:38.028Z,13.37
2023-03-23T19:13:40.302Z,13.37
2023-03-23T19:23:40.947Z,13.38
2023-03-23T19:33:41.554Z,13.46
2023-03-23T19:43:42.692Z,13.64
2023-03-23T19:53:42.677Z,13.84
2023-03-23T20:03:43.732Z,14.00
2023-03-23T20:13:43.628Z,14.14
2023-03-23T20:23:44.335Z,14.27
2023-03-23T20:33:44.575Z,14.36
2023-03-23T20:43:45.104Z,14.43
2023-03-23T20:53:46.201Z,14.48
2023-03-23T21:03:46.725Z,14.51
2023-03-23T21:13:46.718Z,14.53
2023-03-23T21:23:57.012Z,14.55
2023-03-23T21:33:56.671Z,14.55
2023-03-23T21:43:57.163Z,14.49
2023-03-23T21:53:57.773Z,14.39
2023-03-23T22:03:57.854Z,14.30
2023-03-23T22:13:57.793Z,14.23
2023-03-23T22:23:57.715Z,14.11
2023-03-23T22:33:57.862Z,13.95
2023-03-23T22:43:57.800Z,13.77
2023-03-23T22:53:57.783Z,13.57
2023-03-23T23:03:57.905Z,13.38
2023-03-23T23:13:57.789Z,13.22
2023-03-23T23:23:58.002Z,13.09
2023-03-23T23:33:57.966Z,13.00
2023-03-23T23:43:57.925Z,12.95
2023-03-23T23:54:00.025Z,12.94
